Time,TemperatureF,DewpointF,PressureIn,WindDirection,WindDirectionDegrees,WindSpeedMPH,WindSpeedGustMPH,Humidity,HourlyPrecipIn,Conditions,Clouds,dailyrainin,SolarRadiationWatts/m^2,SoftwareType,DateUTC
2013-04-29 00:00:00,69.9,62.7,29.86,South,169,0.0,4.0,78,0.00,,CLR,0.00,0.00,VWS V15.00,2013-04-29 05:00:00,
2013-04-29 00:01:00,68.6,62.9,29.86,South,170,1.0,2.0,82,0.00,,CLR,0.00,0.00,VWS V14.01,2013-04-29 05:01:00,
2013-04-29 00:07:00,68.6,62.9,29.86,South,170,3.0,5.0,82,0.00,,CLR,0.00,0.00,VWS V14.01,2013-04-29 05:07:00,
2013-04-29 00:10:00,69.9,63.1,29.86,South,169,0.0,1.0,79,0.00,,CLR,0.00,0.00,VWS V15.00,2013-04-29 05:10:00,
2013-04-29 00:12:00,68.8,63.1,29.86,South,169,4.0,5.0,82,0.00,,CLR,0.00,0.00,VWS V14.01,2013-04-29 05:12:00,
2013-04-29 00:17:00,68.9,63.2,29.86,South,170,2.0,5.0,82,0.00,,CLR,0.00,0.00,VWS V14.01,2013-04-29 05:17:00,
2013-04-29 00:20:00,69.6,62.8,29.86,South,169,1.0,4.0,79,0.00,,CLR,0.00,0.00,VWS V15.00,2013-04-29 05:20:00,
2013-04-29 00:22:00,68.8,63.1,29.86,South,175,5.0,6.0,82,0.00,,CLR,0.00,0.00,VWS V14.01,2013-04-29 05:22:00,
2013-04-29 00:27:00,68.8,63.1,29.86,South,175,4.0,7.0,82,0.00,,CLR,0.00,0.00,VWS V14.01,2013-04-29 05:27:00,
2013-04-29 00:30:00,69.1,62.7,29.86,South,169,0.0,4.0,80,0.00,,CLR,0.00,0.00,VWS V15.00,2013-04-29 05:30:00,
2013-04-29 00:32:00,68.6,63.2,29.85,South,178,5.0,6.0,83,0.00,,CLR,0.00,0.00,VWS V14.01,2013-04-29 05:32:00,
2013-04-29 00:37:00,68.4,62.7,29.85,South,177,5.0,11.0,82,0.00,,CLR,0.00,0.00,VWS V14.01,2013-04-29 05:37:00,
2013-04-29 00:40:00,68.9,63.2,29.86,South,169,1.0,4.0,82,0.00,,CLR,0.00,0.00,VWS V15.00,2013-04-29 05:40:00,
2013-04-29 00:42:00,68.3,62.9,29.85,SSW,200,6.0,9.0,83,0.00,,CLR,0.00,0.00,VWS V14.01,2013-04-29 05:42:00,
2013-04-29 00:47:00,68.1,62.8,29.84,South,180,6.0,9.0,83,0.00,,CLR,0.00,0.00,VWS V14.01,2013-04-29 05:47:00,
2013-04-29 00:50:00,68.8,63.1,29.85,South,169,2.0,5.0,82,0.00,,CLR,0.00,0.00,VWS V15.00,2013-04-29 05:50:00,
2013-04-29 00:52:00,68.1,62.8,29.84,South,180,3.0,10.0,83,0.00,,CLR,0.00,0.00,VWS V14.01,2013-04-29 05:52:00,
2013-04-29 00:57:00,68.1,63.1,29.84,South,182,5.0,10.0,84,0.00,,CLR,0.00,0.00,VWS V14.01,2013-04-29 05:57:00,
2013-04-29 01:00:00,68.6,62.9,29.86,South,170,2.0,5.0,82,0.00,,CLR,0.00,0.00,VWS V15.00,2013-04-29 06:00:00,
2013-04-29 01:02:00,68.1,63.1,29.84,South,186,3.0,7.0,84,0.00,,CLR,0.00,0.00,VWS V14.01,2013-04-29 06:02:00,
2013-04-29 01:07:00,67.9,62.9,29.84,SSW,199,6.0,10.0,84,0.00,,CLR,0.00,0.00,VWS V14.01,2013-04-29 06:07:00,
2013-04-29 01:10:00,68.8,63.1,29.86,South,170,2.0,5.0,82,0.00,,CLR,0.00,0.00,VWS V15.00,2013-04-29 06:10:00,
2013-04-29 01:12:00,67.6,62.6,29.84,South,186,4.0,6.0,84,0.00,,CLR,0.00,0.00,VWS V14.01,2013-04-29 06:12:00,
2013-04-29 01:17:00,67.4,62.4,29.85,SSE,167,6.0,7.0,84,0.00,,CLR,0.00,0.00,VWS V14.01,2013-04-29 06:17:00,
2013-04-29 01:20:00,68.8,63.1,29.86,South,170,5.0,6.0,82,0.00,,CLR,0.00,0.00,VWS V15.00,2013-04-29 06:20:00,
2013-04-29 01:22:00,67.3,62.6,29.85,South,178,5.0,6.0,85,0.00,,CLR,0.00,0.00,VWS V14.01,2013-04-29 06:22:00,
2013-04-29 01:27:00,67.1,62.5,29.85,South,176,5.0,6.0,85,0.00,,CLR,0.00,0.00,VWS V14.01,2013-04-29 06:27:00,
2013-04-29 01:30:00,68.6,63.2,29.85,South,175,4.0,7.0,83,0.00,,CLR,0.00,0.00,VWS V15.00,2013-04-29 06:30:00,
2013-04-29 01:32:00,67.1,62.5,29.86,South,183,3.0,5.0,85,0.00,,CLR,0.00,0.00,VWS V14.01,2013-04-29 06:32:00,
2013-04-29 01:37:00,66.9,62.2,29.86,South,181,4.0,6.0,85,0.00,,CLR,0.00,0.00,VWS V14.01,2013-04-29 06:37:00,
2013-04-29 01:40:00,68.3,62.6,29.85,South,181,9.0,11.0,82,0.00,,CLR,0.00,0.00,VWS V15.00,2013-04-29 06:40:00,
2013-04-29 01:42:00,66.9,62.2,29.86,South,180,3.0,4.0,85,0.00,,CLR,0.00,0.00,VWS V14.01,2013-04-29 06:42:00,
2013-04-29 01:48:00,66.9,62.2,29.85,South,182,3.0,5.0,85,0.00,,CLR,0.00,0.00,VWS V14.01,2013-04-29 06:48:00,
2013-04-29 01:50:00,68.1,62.8,29.84,SSE,157,9.0,9.0,83,0.00,,CLR,0.00,0.00,VWS V15.00,2013-04-29 06:50:00,
2013-04-29 01:53:00,66.9,62.2,29.85,South,181,4.0,6.0,85,0.00,,CLR,0.00,0.00,VWS V14.01,2013-04-29 06:53:00,
2013-04-29 01:58:00,66.9,62.2,29.85,South,187,6.0,6.0,85,0.00,,CLR,0.00,0.00,VWS V14.01,2013-04-29 06:58:00,
2013-04-29 02:00:00,68.1,63.1,29.84,South,180,5.0,10.0,84,0.00,,CLR,0.00,0.00,VWS V15.00,2013-04-29 07:00:00,
2013-04-29 02:03:00,66.9,62.2,29.85,South,186,5.0,7.0,85,0.00,,CLR,0.00,0.00,VWS V14.01,2013-04-29 07:03:00,
2013-04-29 02:08:00,67.1,62.5,29.85,South,175,3.0,7.0,85,0.00,,CLR,0.00,0.00,VWS V14.01,2013-04-29 07:08:00,
2013-04-29 02:10:00,67.8,62.8,29.84,SSW,200,4.0,10.0,84,0.00,,CLR,0.00,0.00,VWS V15.00,2013-04-29 07:10:00,
2013-04-29 02:13:00,67.1,62.5,29.85,South,175,3.0,5.0,85,0.00,,CLR,0.00,0.00,VWS V14.01,2013-04-29 07:13:00,
2013-04-29 02:18:00,67.1,62.1,29.84,South,173,5.0,6.0,84,0.00,,CLR,0.00,0.00,VWS V14.01,2013-04-29 07:18:00,
2013-04-29 02:20:00,67.3,62.6,29.85,South,189,4.0,7.0,85,0.00,,CLR,0.00,0.00,VWS V15.00,2013-04-29 07:20:00,
2013-04-29 02:23:00,67.1,62.5,29.84,South,178,4.0,5.0,85,0.00,,CLR,0.00,0.00,VWS V14.01,2013-04-29 07:23:00,
2013-04-29 02:28:00,67.1,62.5,29.84,South,180,3.0,5.0,85,0.00,,CLR,0.00,0.00,VWS V14.01,2013-04-29 07:28:00,
2013-04-29 02:30:00,67.1,62.5,29.86,South,183,4.0,6.0,85,0.00,,CLR,0.00,0.00,VWS V15.00,2013-04-29 07:30:00,
2013-04-29 02:33:00,67.1,62.5,29.84,South,177,5.0,5.0,85,0.00,,CLR,0.00,0.00,VWS V14.01,2013-04-29 07:33:00,
2013-04-29 02:38:00,67.1,62.5,29.84,South,178,4.0,5.0,85,0.00,,CLR,0.00,0.00,VWS V14.01,2013-04-29 07:38:00,
2013-04-29 02:40:00,66.9,62.2,29.86,South,180,3.0,6.0,85,0.00,,CLR,0.00,0.00,VWS V15.00,2013-04-29 07:40:00,
2013-04-29 02:43:00,67.1,62.5,29.84,South,188,3.0,6.0,85,0.00,,FEW250,0.00,0.00,VWS V14.01,2013-04-29 07:43:00,
2013-04-29 02:48:00,66.9,62.2,29.84,South,179,5.0,7.0,85,0.00,,FEW250,0.00,0.00,VWS V14.01,2013-04-29 07:48:00,
2013-04-29 02:50:00,66.9,62.2,29.85,South,181,6.0,6.0,85,0.00,,CLR,0.00,0.00,VWS V15.00,2013-04-29 07:50:00,
2013-04-29 02:53:00,66.8,62.5,29.84,South,182,4.0,6.0,86,0.00,,FEW250,0.00,0.00,VWS V14.01,2013-04-29 07:53:00,
2013-04-29 02:58:00,66.8,62.5,29.84,South,182,3.0,6.0,86,0.00,,FEW250,0.00,0.00,VWS V14.01,2013-04-29 07:58:00,
2013-04-29 03:00:00,66.9,62.2,29.85,South,178,3.0,6.0,85,0.00,,CLR,0.00,0.00,VWS V15.00,2013-04-29 08:00:00,
2013-04-29 03:03:00,66.6,62.3,29.84,South,181,5.0,6.0,86,0.00,,FEW250,0.00,0.00,VWS V14.01,2013-04-29 08:03:00,
2013-04-29 03:08:00,66.4,62.1,29.84,South,186,5.0,7.0,86,0.00,,FEW250,0.00,0.00,VWS V14.01,2013-04-29 08:08:00,
2013-04-29 03:10:00,67.1,62.5,29.85,South,176,4.0,7.0,85,0.00,,CLR,0.00,0.00,VWS V15.00,2013-04-29 08:10:00,
2013-04-29 03:13:00,66.3,62.0,29.84,South,177,2.0,4.0,86,0.00,,FEW250,0.00,0.00,VWS V14.01,2013-04-29 08:13:00,
2013-04-29 03:18:00,66.1,61.8,29.84,South,178,2.0,5.0,86,0.00,,FEW250,0.00,0.00,VWS V14.01,2013-04-29 08:18:00,
2013-04-29 03:20:00,67.1,62.5,29.84,South,174,3.0,6.0,85,0.00,,CLR,0.00,0.00,VWS V15.00,2013-04-29 08:20:00,
2013-04-29 03:23:00,66.0,61.7,29.84,South,178,3.0,4.0,86,0.00,,FEW250,0.00,0.00,VWS V14.01,2013-04-29 08:23:00,
2013-04-29 03:28:00,66.0,61.7,29.84,South,178,2.0,5.0,86,0.00,,FEW250,0.00,0.00,VWS V14.01,2013-04-29 08:28:00,
2013-04-29 03:30:00,67.1,62.5,29.84,South,180,4.0,5.0,85,0.00,,CLR,0.00,0.00,VWS V15.00,2013-04-29 08:30:00,
2013-04-29 03:33:00,65.8,61.5,29.84,South,178,3.0,4.0,86,0.00,,FEW250,0.00,0.00,VWS V14.01,2013-04-29 08:33:00,
2013-04-29 03:38:00,65.6,61.3,29.84,South,178,3.0,5.0,86,0.00,,FEW250,0.00,0.00,VWS V14.01,2013-04-29 08:38:00,
2013-04-29 03:40:00,67.1,62.5,29.84,South,173,6.0,6.0,85,0.00,,CLR,0.00,0.00,VWS V15.00,2013-04-29 08:40:00,
2013-04-29 03:43:00,65.6,61.6,29.84,South,178,4.0,4.0,87,0.00,,SCT250,0.00,0.00,VWS V14.01,2013-04-29 08:43:00,
2013-04-29 03:48:00,65.5,61.5,29.83,South,178,2.0,5.0,87,0.00,,SCT250,0.00,0.00,VWS V14.01,2013-04-29 08:48:00,
2013-04-29 03:50:00,66.9,62.6,29.84,South,187,6.0,7.0,86,0.00,,CLR,0.00,0.00,VWS V15.00,2013-04-29 08:50:00,
2013-04-29 03:53:00,65.5,61.5,29.83,South,179,4.0,5.0,87,0.00,,SCT250,0.00,0.00,VWS V14.01,2013-04-29 08:53:00,
2013-04-29 03:58:00,65.3,61.3,29.83,South,181,5.0,6.0,87,0.00,,SCT250,0.00,0.00,VWS V14.01,2013-04-29 08:58:00,
2013-04-29 04:00:00,66.6,62.3,29.84,South,182,4.0,6.0,86,0.00,,CLR,0.00,0.00,VWS V15.00,2013-04-29 09:00:00,
2013-04-29 04:03:00,65.3,61.3,29.84,South,185,5.0,6.0,87,0.00,,SCT250,0.00,0.00,VWS V14.01,2013-04-29 09:03:00,
2013-04-29 04:08:00,65.3,61.3,29.84,South,171,4.0,7.0,87,0.00,,SCT250,0.00,0.00,VWS V14.01,2013-04-29 09:08:00,
2013-04-29 04:10:00,66.3,62.0,29.84,South,177,4.0,7.0,86,0.00,,CLR,0.00,0.00,VWS V15.00,2013-04-29 09:10:00,
2013-04-29 04:13:00,65.3,61.3,29.84,South,179,3.0,7.0,87,0.00,,SCT250,0.00,0.00,VWS V14.01,2013-04-29 09:13:00,
2013-04-29 04:18:00,65.2,61.2,29.84,South,173,4.0,8.0,87,0.00,,SCT250,0.00,0.00,VWS V14.01,2013-04-29 09:18:00,
2013-04-29 04:20:00,66.1,61.8,29.84,South,178,2.0,5.0,86,0.00,,CLR,0.00,0.00,VWS V15.00,2013-04-29 09:20:00,
2013-04-29 04:23:00,65.2,61.2,29.84,South,178,4.0,6.0,87,0.00,,SCT250,0.00,0.00,VWS V14.01,2013-04-29 09:23:00,
2013-04-29 04:28:00,65.2,61.2,29.84,South,180,4.0,6.0,87,0.00,,SCT250,0.00,0.00,VWS V14.01,2013-04-29 09:28:00,
2013-04-29 04:30:00,65.8,61.5,29.84,South,178,3.0,5.0,86,0.00,,CLR,0.00,0.00,VWS V15.00,2013-04-29 09:30:00,
2013-04-29 04:33:00,65.0,61.4,29.84,South,188,4.0,6.0,88,0.00,,SCT250,0.00,0.00,VWS V14.01,2013-04-29 09:33:00,
2013-04-29 04:38:00,65.0,61.4,29.84,South,185,4.0,6.0,88,0.00,,SCT250,0.00,0.00,VWS V14.01,2013-04-29 09:38:00,
2013-04-29 04:40:00,65.6,61.3,29.84,South,178,3.0,5.0,86,0.00,,CLR,0.00,0.00,VWS V15.00,2013-04-29 09:40:00,
2013-04-29 04:43:00,65.0,61.4,29.84,South,181,1.0,5.0,88,0.00,,BKN250,0.00,0.00,VWS V14.01,2013-04-29 09:43:00,
2013-04-29 04:48:00,64.8,61.2,29.84,South,181,3.0,5.0,88,0.00,,BKN250,0.00,0.00,VWS V14.01,2013-04-29 09:48:00,
2013-04-29 04:50:00,65.5,61.5,29.83,South,178,4.0,6.0,87,0.00,,CLR,0.00,0.00,VWS V15.00,2013-04-29 09:50:00,
2013-04-29 04:55:00,64.7,61.1,29.84,South,181,2.0,4.0,88,0.00,,BKN250,0.00,0.00,VWS V14.01,2013-04-29 09:55:00,
2013-04-29 05:00:00,64.5,60.9,29.84,South,181,2.0,4.0,88,0.00,,BKN250,0.00,0.00,VWS V14.01,2013-04-29 10:00:00,
2013-04-29 05:04:00,64.5,60.9,29.84,South,181,2.0,3.0,88,0.00,,BKN250,0.00,0.00,VWS V14.01,2013-04-29 10:04:00,
2013-04-29 05:09:00,64.3,60.7,29.84,South,181,3.0,3.0,88,0.00,,BKN250,0.00,0.00,VWS V14.01,2013-04-29 10:09:00,
2013-04-29 05:10:00,65.3,61.3,29.84,South,174,6.0,7.0,87,0.00,,CLR,0.00,0.00,VWS V15.00,2013-04-29 10:10:00,
2013-04-29 05:14:00,64.3,60.7,29.84,South,181,3.0,3.0,88,0.00,,BKN250,0.00,0.00,VWS V14.01,2013-04-29 10:14:00,
2013-04-29 05:19:00,64.2,60.6,29.84,South,181,2.0,3.0,88,0.00,,BKN250,0.00,0.00,VWS V14.01,2013-04-29 10:19:00,
2013-04-29 05:20:00,65.2,61.2,29.84,South,173,4.0,8.0,87,0.00,,CLR,0.00,0.00,VWS V15.00,2013-04-29 10:20:00,
2013-04-29 05:24:00,64.2,60.6,29.84,South,181,0.0,3.0,88,0.00,,BKN250,0.00,0.00,VWS V14.01,2013-04-29 10:24:00,
2013-04-29 05:29:00,64.0,60.4,29.84,South,181,1.0,3.0,88,0.00,,BKN250,0.00,0.00,VWS V14.01,2013-04-29 10:29:00,
2013-04-29 05:30:00,65.2,61.2,29.84,South,188,2.0,6.0,87,0.00,,CLR,0.00,0.00,VWS V15.00,2013-04-29 10:30:00,
2013-04-29 05:34:00,64.0,60.4,29.84,South,181,0.0,2.0,88,0.00,,BKN250,0.00,0.00,VWS V14.01,2013-04-29 10:34:00,
2013-04-29 05:39:00,64.0,60.7,29.84,South,181,1.0,2.0,89,0.00,,BKN250,0.00,0.00,VWS V14.01,2013-04-29 10:39:00,
2013-04-29 05:40:00,65.0,61.4,29.84,South,185,2.0,6.0,88,0.00,,CLR,0.00,0.00,VWS V15.00,2013-04-29 10:40:00,
2013-04-29 05:44:00,63.9,60.6,29.84,South,181,1.0,2.0,89,0.00,,BKN250,0.00,0.00,VWS V14.01,2013-04-29 10:44:00,
2013-04-29 05:49:00,63.7,60.4,29.84,South,181,2.0,3.0,89,0.00,,BKN250,0.00,0.00,VWS V14.01,2013-04-29 10:49:00,
2013-04-29 05:50:00,64.8,61.2,29.84,South,181,0.0,5.0,88,0.00,,CLR,0.00,0.00,VWS V15.00,2013-04-29 10:50:00,
2013-04-29 05:54:00,63.7,60.4,29.84,South,181,2.0,4.0,89,0.00,,BKN250,0.00,0.00,VWS V14.01,2013-04-29 10:54:00,
2013-04-29 05:59:00,63.7,60.4,29.84,South,181,0.0,4.0,89,0.00,,BKN250,0.00,0.00,VWS V14.01,2013-04-29 10:59:00,
2013-04-29 06:00:00,64.5,60.9,29.84,South,181,1.0,4.0,88,0.00,,CLR,0.00,0.00,VWS V15.00,2013-04-29 11:00:00,
2013-04-29 06:04:00,63.7,60.4,29.84,South,181,0.0,3.0,89,0.00,,BKN250,0.00,0.00,VWS V14.01,2013-04-29 11:04:00,
2013-04-29 06:09:00,63.7,60.4,29.84,South,181,4.0,4.0,89,0.00,,BKN250,0.00,0.00,VWS V14.01,2013-04-29 11:09:00,
2013-04-29 06:10:00,64.3,60.7,29.84,South,181,0.0,3.0,88,0.00,,CLR,0.00,0.00,VWS V15.00,2013-04-29 11:10:00,
2013-04-29 06:14:00,63.9,60.9,29.84,South,181,3.0,5.0,90,0.00,,BKN250,0.00,0.00,VWS V14.01,2013-04-29 11:14:00,
2013-04-29 06:20:00,63.9,60.9,29.85,South,181,3.0,5.0,90,0.00,,BKN250,0.00,0.00,VWS V14.01,2013-04-29 11:20:00,
2013-04-29 06:25:00,63.9,60.9,29.85,South,181,4.0,5.0,90,0.00,,BKN250,0.00,0.00,VWS V14.01,2013-04-29 11:25:00,
2013-04-29 06:30:00,63.9,60.9,29.85,SSE,155,0.0,5.0,90,0.00,,BKN250,0.00,0.00,VWS V14.01,2013-04-29 11:30:00,
2013-04-29 06:35:00,63.7,60.7,29.85,SSE,158,2.0,3.0,90,0.00,,BKN250,0.00,0.00,VWS V14.01,2013-04-29 11:35:00,
2013-04-29 06:40:00,63.5,60.5,29.85,SSE,158,1.0,4.0,90,0.00,,BKN250,0.00,5.00,VWS V14.01,2013-04-29 11:40:00,
2013-04-29 06:45:00,63.5,60.5,29.85,SSE,159,4.0,6.0,90,0.00,,BKN250,0.00,7.00,VWS V14.01,2013-04-29 11:45:00,
2013-04-29 06:50:00,63.5,60.5,29.85,South,186,3.0,6.0,90,0.00,,BKN250,0.00,12.00,VWS V14.01,2013-04-29 11:50:00,
2013-04-29 06:55:00,63.5,60.5,29.85,SE,144,3.0,5.0,90,0.00,,BKN250,0.00,18.00,VWS V14.01,2013-04-29 11:55:00,
2013-04-29 07:00:00,63.4,60.7,29.86,SE,144,2.0,5.0,91,0.00,,BKN250,0.00,21.00,VWS V14.01,2013-04-29 12:00:00,
2013-04-29 07:05:00,63.4,60.7,29.86,South,171,5.0,5.0,91,0.00,,BKN250,0.00,26.00,VWS V14.01,2013-04-29 12:05:00,
2013-04-29 07:10:00,63.4,60.7,29.86,South,178,4.0,6.0,91,0.00,,BKN250,0.00,28.00,VWS V14.01,2013-04-29 12:10:00,
2013-04-29 07:15:00,63.4,60.7,29.86,SSE,164,2.0,4.0,91,0.00,,BKN250,0.00,32.00,VWS V14.01,2013-04-29 12:15:00,
2013-04-29 07:20:00,63.4,60.7,29.86,South,183,3.0,7.0,91,0.00,,BKN250,0.00,51.00,VWS V14.01,2013-04-29 12:20:00,
2013-04-29 07:25:00,63.4,60.7,29.86,South,184,4.0,4.0,91,0.00,,BKN250,0.00,60.00,VWS V14.01,2013-04-29 12:25:00,
2013-04-29 07:30:00,63.4,60.7,29.87,South,185,5.0,6.0,91,0.00,,BKN250,0.00,40.00,VWS V14.01,2013-04-29 12:30:00,
2013-04-29 07:35:00,63.4,60.7,29.87,South,183,3.0,5.0,91,0.00,,BKN250,0.00,40.00,VWS V14.01,2013-04-29 12:35:00,
2013-04-29 07:40:00,63.2,60.5,29.87,South,182,2.0,6.0,91,0.00,,BKN250,0.00,42.00,VWS V14.01,2013-04-29 12:40:00,
2013-04-29 07:45:00,63.2,60.5,29.87,South,182,4.0,5.0,91,0.00,,BKN250,0.00,46.00,VWS V14.01,2013-04-29 12:45:00,
2013-04-29 07:50:00,63.2,60.5,29.87,South,182,2.0,5.0,91,0.00,,BKN250,0.00,47.00,VWS V14.01,2013-04-29 12:50:00,
2013-04-29 07:55:00,63.2,60.8,29.87,South,182,3.0,5.0,92,0.00,,BKN250,0.00,56.00,VWS V14.01,2013-04-29 12:55:00,
2013-04-29 08:00:00,63.4,61.0,29.87,South,187,5.0,6.0,92,0.00,,BKN250,0.00,63.00,VWS V14.01,2013-04-29 13:00:00,
2013-04-29 08:05:00,63.4,61.0,29.87,South,190,8.0,9.0,92,0.00,,BKN300,0.00,83.00,VWS V14.01,2013-04-29 13:05:00,
2013-04-29 08:10:00,63.2,60.8,29.87,South,180,5.0,10.0,92,0.00,,BKN300,0.00,91.00,VWS V14.01,2013-04-29 13:10:00,
2013-04-29 08:15:00,63.4,61.0,29.88,South,190,5.0,9.0,92,0.00,,BKN300,0.00,72.00,VWS V14.01,2013-04-29 13:15:00,
2013-04-29 08:20:00,63.4,61.0,29.88,South,188,6.0,10.0,92,0.00,,BKN300,0.00,72.00,VWS V14.01,2013-04-29 13:20:00,
2013-04-29 08:25:00,63.4,61.0,29.88,South,187,6.0,10.0,92,0.00,,BKN300,0.00,72.00,VWS V14.01,2013-04-29 13:25:00,
2013-04-29 08:30:00,63.4,61.0,29.88,South,172,5.0,10.0,92,0.00,,BKN300,0.00,69.00,VWS V14.01,2013-04-29 13:30:00,
2013-04-29 08:35:00,63.4,61.0,29.88,South,178,5.0,7.0,92,0.00,,BKN300,0.00,76.00,VWS V14.01,2013-04-29 13:35:00,
2013-04-29 08:40:00,63.5,61.1,29.88,South,185,3.0,7.0,92,0.00,,BKN300,0.00,86.00,VWS V14.01,2013-04-29 13:40:00,
2013-04-29 08:45:00,63.7,61.3,29.88,South,182,7.0,7.0,92,0.00,,BKN300,0.00,95.00,VWS V14.01,2013-04-29 13:45:00,
2013-04-29 08:50:00,63.9,61.5,29.88,South,187,5.0,7.0,92,0.00,,BKN300,0.00,120.00,VWS V14.01,2013-04-29 13:50:00,
2013-04-29 08:55:00,64.0,61.6,29.88,South,185,5.0,6.0,92,0.00,,BKN300,0.00,123.00,VWS V14.01,2013-04-29 13:55:00,
2013-04-29 09:00:00,64.3,61.9,29.88,South,182,2.0,6.0,92,0.00,,BKN300,0.00,102.00,VWS V14.01,2013-04-29 14:00:00,
2013-04-29 09:05:00,64.7,62.3,29.88,South,182,4.0,5.0,92,0.00,,BKN300,0.00,309.00,VWS V14.01,2013-04-29 14:05:00,
2013-04-29 09:10:00,64.8,62.4,29.88,SSW,213,5.0,6.0,92,0.00,,BKN300,0.00,213.00,VWS V14.01,2013-04-29 14:10:00,
2013-04-29 09:15:00,65.2,62.8,29.89,SSW,203,6.0,7.0,92,0.00,,BKN300,0.00,295.00,VWS V14.01,2013-04-29 14:15:00,
2013-04-29 09:20:00,65.3,62.6,29.89,South,186,4.0,7.0,91,0.00,,BKN300,0.00,374.00,VWS V14.01,2013-04-29 14:20:00,
2013-04-29 09:25:00,65.6,62.9,29.89,SSW,192,5.0,7.0,91,0.00,,BKN300,0.00,464.00,VWS V14.01,2013-04-29 14:25:00,
2013-04-29 09:30:00,66.0,63.3,29.88,SSW,192,4.0,7.0,91,0.00,,BKN300,0.00,506.00,VWS V14.01,2013-04-29 14:30:00,
2013-04-29 09:35:00,66.4,63.7,29.88,South,191,3.0,6.0,91,0.00,,BKN300,0.00,193.00,VWS V14.01,2013-04-29 14:35:00,
2013-04-29 09:40:00,66.9,63.9,29.88,South,191,4.0,6.0,90,0.00,,BKN300,0.00,125.00,VWS V14.01,2013-04-29 14:40:00,
2013-04-29 09:45:00,67.3,64.3,29.89,South,191,1.0,5.0,90,0.00,,BKN300,0.00,271.00,VWS V14.01,2013-04-29 14:45:00,
2013-04-29 09:50:00,67.9,64.9,29.89,South,191,3.0,5.0,90,0.00,,BKN300,0.00,230.00,VWS V14.01,2013-04-29 14:50:00,
2013-04-29 09:55:00,68.3,64.9,29.89,South,190,5.0,6.0,89,0.00,,BKN300,0.00,473.00,VWS V14.01,2013-04-29 14:55:00,
2013-04-29 10:00:00,68.8,65.1,29.88,South,190,3.0,6.0,88,0.00,,BKN300,0.00,496.00,VWS V14.01,2013-04-29 15:00:00,
2013-04-29 10:05:00,69.3,65.3,29.88,South,190,3.0,5.0,87,0.00,,BKN300,0.00,591.00,VWS V14.01,2013-04-29 15:05:00,
2013-04-29 10:10:00,69.8,65.4,29.88,South,189,5.0,6.0,86,0.00,,BKN300,0.00,167.00,VWS V14.01,2013-04-29 15:10:00,
2013-04-29 10:15:00,70.4,65.7,29.88,SSW,196,5.0,6.0,85,0.00,,BKN300,0.00,244.00,VWS V14.01,2013-04-29 15:15:00,
2013-04-29 10:20:00,70.8,65.7,29.88,South,191,5.0,6.0,84,0.00,,BKN300,0.00,656.00,VWS V14.01,2013-04-29 15:20:00,
2013-04-29 10:25:00,71.3,65.9,29.88,South,187,5.0,7.0,83,0.00,,BKN300,0.00,621.00,VWS V14.01,2013-04-29 15:25:00,
2013-04-29 10:30:00,71.8,66.0,29.88,South,171,5.0,7.0,82,0.00,,BKN300,0.00,599.00,VWS V14.01,2013-04-29 15:30:00,
2013-04-29 10:35:00,72.1,65.6,29.88,South,182,6.0,7.0,80,0.00,,BKN300,0.00,710.00,VWS V14.01,2013-04-29 15:35:00,
2013-04-29 10:40:00,72.7,65.8,29.88,South,180,5.0,10.0,79,0.00,,BKN300,0.00,724.00,VWS V14.01,2013-04-29 15:40:00,
2013-04-29 10:45:00,73.2,65.9,29.88,SSW,197,7.0,7.0,78,0.00,,BKN300,0.00,745.00,VWS V14.01,2013-04-29 15:45:00,
2013-04-29 10:50:00,73.5,65.9,29.88,South,172,6.0,10.0,77,0.00,,BKN300,0.00,759.00,VWS V14.01,2013-04-29 15:50:00,
2013-04-29 10:55:00,74.0,66.0,29.88,SSE,163,5.0,10.0,76,0.00,,BKN300,0.00,772.00,VWS V14.01,2013-04-29 15:55:00,
2013-04-29 11:00:00,74.4,65.6,29.88,South,187,6.0,10.0,74,0.00,,BKN300,0.00,786.00,VWS V14.01,2013-04-29 16:00:00,
2013-04-29 11:05:00,74.9,65.3,29.88,South,191,7.0,12.0,72,0.00,,BKN300,0.00,798.00,VWS V14.01,2013-04-29 16:05:00,
2013-04-29 11:10:00,69.8,65.4,29.88,South,189,4.0,6.0,86,0.00,,CLR,0.00,163.00,VWS V15.00,2013-04-29 16:10:00,
2013-04-29 11:14:00,75.3,65.3,29.88,South,186,7.0,12.0,71,0.00,,BKN300,0.00,780.00,VWS V14.01,2013-04-29 16:14:00,
2013-04-29 11:19:00,75.8,64.9,29.88,South,181,4.0,12.0,69,0.00,,BKN300,0.00,835.00,VWS V14.01,2013-04-29 16:19:00,
2013-04-29 11:20:00,70.8,65.4,29.88,SSW,194,3.0,6.0,83,0.00,,CLR,0.00,668.00,VWS V15.00,2013-04-29 16:20:00,
2013-04-29 11:24:00,76.3,65.0,29.88,South,176,5.0,11.0,68,0.00,,BKN300,0.00,828.00,VWS V14.01,2013-04-29 16:24:00,
2013-04-29 11:29:00,76.8,65.0,29.88,SSW,196,9.0,11.0,67,0.00,,BKN300,0.00,849.00,VWS V14.01,2013-04-29 16:29:00,
2013-04-29 11:30:00,71.8,66.0,29.88,South,180,7.0,7.0,82,0.00,,CLR,0.00,599.00,VWS V15.00,2013-04-29 16:30:00,
2013-04-29 11:34:00,77.4,64.7,29.88,South,190,5.0,9.0,65,0.00,,BKN300,0.00,867.00,VWS V14.01,2013-04-29 16:34:00,
2013-04-29 11:39:00,78.1,62.6,29.88,South,181,7.0,14.0,59,0.00,,CLR,0.00,870.00,VWS V14.01,2013-04-29 16:39:00,
2013-04-29 11:40:00,72.7,65.8,29.88,South,180,5.0,10.0,79,0.00,,CLR,0.00,729.00,VWS V15.00,2013-04-29 16:40:00,
2013-04-29 11:44:00,78.5,62.5,29.88,South,180,5.0,11.0,58,0.00,,CLR,0.00,874.00,VWS V14.01,2013-04-29 16:44:00,
2013-04-29 11:49:00,78.6,63.1,29.87,SSE,157,10.0,13.0,59,0.00,,CLR,0.00,882.00,VWS V14.01,2013-04-29 16:49:00,
2013-04-29 11:50:00,73.5,65.9,29.88,South,172,4.0,10.0,77,0.00,,CLR,0.00,763.00,VWS V15.00,2013-04-29 16:50:00,
2013-04-29 11:54:00,78.5,62.5,29.87,SSE,167,11.0,13.0,58,0.00,,CLR,0.00,893.00,VWS V14.01,2013-04-29 16:54:00,
2013-04-29 11:59:00,78.8,63.3,29.87,SSW,202,8.0,14.0,59,0.00,,CLR,0.00,891.00,VWS V14.01,2013-04-29 16:59:00,
2013-04-29 12:00:00,74.6,65.8,29.88,South,178,8.0,10.0,74,0.00,,CLR,0.00,786.00,VWS V15.00,2013-04-29 17:00:00,
2013-04-29 12:04:00,79.4,62.9,29.87,SSE,164,11.0,12.0,57,0.00,,CLR,0.00,907.00,VWS V14.01,2013-04-29 17:04:00,
2013-04-29 12:09:00,79.4,62.3,29.87,SSW,204,10.0,12.0,56,0.00,,CLR,0.00,911.00,VWS V14.01,2013-04-29 17:09:00,
2013-04-29 12:10:00,75.3,65.3,29.88,South,186,7.0,12.0,71,0.00,,CLR,0.00,780.00,VWS V15.00,2013-04-29 17:10:00,
2013-04-29 12:14:00,79.4,62.3,29.87,SSW,195,9.0,12.0,56,0.00,,CLR,0.00,923.00,VWS V14.01,2013-04-29 17:14:00,
2013-04-29 12:19:00,79.4,61.3,29.87,South,190,8.0,14.0,54,0.00,,CLR,0.00,926.00,VWS V14.01,2013-04-29 17:19:00,
2013-04-29 12:20:00,76.0,65.1,29.88,South,180,4.0,12.0,69,0.00,,CLR,0.00,837.00,VWS V15.00,2013-04-29 17:20:00,
2013-04-29 12:24:00,79.8,61.7,29.87,South,182,6.0,14.0,54,0.00,,CLR,0.00,932.00,VWS V14.01,2013-04-29 17:24:00,
2013-04-29 12:29:00,79.9,62.3,29.87,SSW,192,5.0,14.0,55,0.00,,CLR,0.00,942.00,VWS V14.01,2013-04-29 17:29:00,
2013-04-29 12:30:00,77.0,64.8,29.88,South,190,6.0,11.0,66,0.00,,CLR,0.00,853.00,VWS V15.00,2013-04-29 17:30:00,
2013-04-29 12:34:00,79.9,60.2,29.87,SSW,200,6.0,16.0,51,0.00,,SCT250,0.00,946.00,VWS V14.01,2013-04-29 17:34:00,
2013-04-29 12:39:00,80.9,60.0,29.87,South,170,9.0,16.0,49,0.00,,SCT250,0.00,954.00,VWS V14.01,2013-04-29 17:39:00,
2013-04-29 12:40:00,78.1,63.1,29.88,SSW,194,5.0,14.0,60,0.00,,CLR,0.00,877.00,VWS V15.00,2013-04-29 17:40:00,
2013-04-29 12:44:00,81.1,59.6,29.87,SSW,202,6.0,13.0,48,0.00,,SCT250,0.00,954.00,VWS V14.01,2013-04-29 17:44:00,
2013-04-29 12:49:00,81.1,60.7,29.86,SSW,209,11.0,13.0,50,0.00,,SCT250,0.00,949.00,VWS V14.01,2013-04-29 17:49:00,
2013-04-29 12:50:00,78.5,63.0,29.87,South,186,7.0,14.0,59,0.00,,CLR,0.00,886.00,VWS V15.00,2013-04-29 17:50:00,
2013-04-29 12:54:00,80.9,62.2,29.86,South,169,9.0,13.0,53,0.00,,SCT250,0.00,958.00,VWS V14.01,2013-04-29 17:54:00,
2013-04-29 12:59:00,80.9,62.7,29.86,South,173,4.0,13.0,54,0.00,,SCT250,0.00,960.00,VWS V14.01,2013-04-29 17:59:00,
2013-04-29 13:00:00,79.0,63.0,29.87,SSW,203,5.0,14.0,58,0.00,,CLR,0.00,904.00,VWS V15.00,2013-04-29 18:00:00,
2013-04-29 13:04:00,81.2,61.9,29.85,South,185,5.0,8.0,52,0.00,,SCT250,0.00,963.00,VWS V14.01,2013-04-29 18:04:00,
2013-04-29 13:09:00,81.1,61.8,29.85,South,189,4.0,11.0,52,0.00,,SCT250,0.00,967.00,VWS V14.01,2013-04-29 18:09:00,
2013-04-29 13:10:00,79.4,62.3,29.87,SSW,196,10.0,13.0,56,0.00,,CLR,0.00,912.00,VWS V15.00,2013-04-29 18:10:00,
2013-04-29 13:15:00,81.1,61.8,29.85,South,181,5.0,13.0,52,0.00,,SCT250,0.00,969.00,VWS V14.01,2013-04-29 18:15:00,
2013-04-29 13:20:00,81.2,62.5,29.85,SSW,192,3.0,13.0,53,0.00,,SCT019,0.00,970.00,VWS V14.01,2013-04-29 18:20:00,
2013-04-29 13:25:00,81.1,62.9,29.85,SSW,199,6.0,10.0,54,0.00,,SCT019,0.00,960.00,VWS V14.01,2013-04-29 18:25:00,
2013-04-29 13:30:00,80.9,62.2,29.85,South,175,5.0,15.0,53,0.00,,SCT019,0.00,967.00,VWS V14.01,2013-04-29 18:30:00,
2013-04-29 13:35:00,81.1,61.8,29.85,South,188,10.0,12.0,52,0.00,,SCT019,0.00,972.00,VWS V14.01,2013-04-29 18:35:00,
2013-04-29 13:40:00,80.9,60.0,29.87,SSW,202,8.0,16.0,49,0.00,,CLR,0.00,954.00,VWS V15.00,2013-04-29 18:40:00,
2013-04-29 13:41:00,81.1,61.3,29.85,South,190,9.0,12.0,51,0.00,,SCT019,0.00,967.00,VWS V14.01,2013-04-29 18:41:00,
2013-04-29 13:46:00,81.2,60.2,29.84,South,173,9.0,13.0,49,0.00,,SCT250,0.00,965.00,VWS V14.01,2013-04-29 18:46:00,
2013-04-29 13:50:00,80.9,60.5,29.86,SSW,196,5.0,13.0,50,0.00,,CLR,0.00,954.00,VWS V15.00,2013-04-29 18:50:00,
2013-04-29 13:51:00,81.1,60.7,29.84,South,189,11.0,11.0,50,0.00,,SCT250,0.00,967.00,VWS V14.01,2013-04-29 18:51:00,
2013-04-29 13:56:00,80.9,60.0,29.84,South,184,7.0,15.0,49,0.00,,SCT250,0.00,965.00,VWS V14.01,2013-04-29 18:56:00,
2013-04-29 14:00:00,80.9,62.7,29.85,South,173,7.0,13.0,54,0.00,,CLR,0.00,963.00,VWS V15.00,2013-04-29 19:00:00,
2013-04-29 14:01:00,80.5,61.3,29.84,South,179,7.0,10.0,52,0.00,,SCT250,0.00,965.00,VWS V14.01,2013-04-29 19:01:00,
2013-04-29 14:06:00,80.9,61.1,29.84,SSW,202,9.0,13.0,51,0.00,,SCT250,0.00,958.00,VWS V14.01,2013-04-29 19:06:00,
2013-04-29 14:10:00,81.1,62.4,29.85,SSW,200,5.0,11.0,53,0.00,,CLR,0.00,960.00,VWS V15.00,2013-04-29 19:10:00,
2013-04-29 14:11:00,81.2,61.4,29.84,South,189,7.0,9.0,51,0.00,,SCT250,0.00,949.00,VWS V14.01,2013-04-29 19:11:00,
2013-04-29 14:16:00,81.4,61.5,29.84,SSW,193,8.0,12.0,51,0.00,,SCT250,0.00,944.00,VWS V14.01,2013-04-29 19:16:00,
2013-04-29 14:20:00,81.2,62.5,29.85,South,178,9.0,13.0,53,0.00,,CLR,0.00,970.00,VWS V15.00,2013-04-29 19:20:00,
2013-04-29 14:21:00,81.4,62.6,29.84,South,185,4.0,9.0,53,0.00,,SCT250,0.00,937.00,VWS V14.01,2013-04-29 19:21:00,
2013-04-29 14:26:00,81.4,62.1,29.84,South,181,5.0,12.0,52,0.00,,SCT250,0.00,940.00,VWS V14.01,2013-04-29 19:26:00,
2013-04-29 14:30:00,80.9,62.2,29.85,SSW,196,5.0,15.0,53,0.00,,CLR,0.00,967.00,VWS V15.00,2013-04-29 19:30:00,
2013-04-29 14:31:00,81.8,62.5,29.83,South,180,8.0,11.0,52,0.00,,SCT250,0.00,935.00,VWS V14.01,2013-04-29 19:31:00,
2013-04-29 14:38:00,81.1,61.3,29.83,SSW,206,13.0,15.0,51,0.00,,SCT250,0.00,928.00,VWS V14.01,2013-04-29 19:38:00,
2013-04-29 14:40:00,80.9,61.6,29.85,South,185,5.0,12.0,52,0.00,,CLR,0.00,967.00,VWS V15.00,2013-04-29 19:40:00,
2013-04-29 14:43:00,81.4,60.4,29.83,South,187,10.0,13.0,49,0.00,,SCT250,0.00,918.00,VWS V14.01,2013-04-29 19:43:00,
2013-04-29 14:48:00,81.6,62.3,29.83,SSW,196,6.0,17.0,52,0.00,,SCT250,0.00,912.00,VWS V14.01,2013-04-29 19:48:00,
2013-04-29 14:50:00,81.1,60.7,29.84,South,186,11.0,13.0,50,0.00,,CLR,0.00,967.00,VWS V15.00,2013-04-29 19:50:00,
2013-04-29 14:53:00,81.6,62.8,29.83,South,185,6.0,11.0,53,0.00,,SCT250,0.00,902.00,VWS V14.01,2013-04-29 19:53:00,
2013-04-29 14:59:00,81.6,63.4,29.83,SSW,194,4.0,11.0,54,0.00,,SCT250,0.00,895.00,VWS V14.01,2013-04-29 19:59:00,
2013-04-29 15:00:00,80.5,60.7,29.84,South,175,7.0,15.0,51,0.00,,CLR,0.00,965.00,VWS V15.00,2013-04-29 20:00:00,
2013-04-29 15:05:00,81.8,63.0,29.82,South,173,6.0,12.0,53,0.00,,SCT250,0.00,884.00,VWS V14.01,2013-04-29 20:05:00,
2013-04-29 15:10:00,81.2,61.4,29.84,South,181,5.0,13.0,51,0.00,,CLR,0.00,949.00,VWS V15.00,2013-04-29 20:10:00,
2013-04-29 15:11:00,82.0,63.2,29.82,SSW,193,6.0,12.0,53,0.00,,SCT250,0.00,874.00,VWS V14.01,2013-04-29 20:11:00,
2013-04-29 15:16:00,82.0,63.2,29.82,SSW,200,5.0,11.0,53,0.00,,SCT250,0.00,867.00,VWS V14.01,2013-04-29 20:16:00,
2013-04-29 15:20:00,81.4,62.6,29.84,South,178,9.0,14.0,53,0.00,,CLR,0.00,937.00,VWS V15.00,2013-04-29 20:20:00,
2013-04-29 15:21:00,82.2,63.9,29.82,South,191,8.0,10.0,54,0.00,,SCT250,0.00,849.00,VWS V14.01,2013-04-29 20:21:00,
2013-04-29 15:26:00,82.2,63.9,29.82,South,186,6.0,11.0,54,0.00,,SCT250,0.00,838.00,VWS V14.01,2013-04-29 20:26:00,
2013-04-29 15:30:00,81.8,61.9,29.83,SSW,196,7.0,12.0,51,0.00,,CLR,0.00,935.00,VWS V15.00,2013-04-29 20:30:00,
2013-04-29 15:31:00,81.8,63.5,29.81,SSE,167,5.0,5.0,54,0.00,,SCT250,0.00,830.00,VWS V14.01,2013-04-29 20:31:00,
2013-04-29 15:36:00,81.8,63.5,29.81,South,188,7.0,13.0,54,0.00,,SCT250,0.00,821.00,VWS V14.01,2013-04-29 20:36:00,
2013-04-29 15:40:00,81.1,59.6,29.83,South,182,10.0,16.0,48,0.00,,CLR,0.00,895.00,VWS V15.00,2013-04-29 20:40:00,
2013-04-29 15:41:00,82.0,63.7,29.81,SSW,212,9.0,9.0,54,0.00,,SCT250,0.00,814.00,VWS V14.01,2013-04-29 20:41:00,
2013-04-29 15:46:00,82.0,62.7,29.80,South,175,6.0,13.0,52,0.00,,SCT250,0.00,796.00,VWS V14.01,2013-04-29 20:46:00,
2013-04-29 15:50:00,81.6,62.3,29.83,South,173,5.0,17.0,52,0.00,,CLR,0.00,909.00,VWS V15.00,2013-04-29 20:50:00,
2013-04-29 15:51:00,82.2,63.4,29.80,SSW,194,9.0,9.0,53,0.00,,SCT250,0.00,786.00,VWS V14.01,2013-04-29 20:51:00,
2013-04-29 15:56:00,82.2,63.9,29.80,South,175,7.0,13.0,54,0.00,,SCT250,0.00,773.00,VWS V14.01,2013-04-29 20:56:00,
2013-04-29 16:00:00,81.6,62.8,29.82,South,173,6.0,12.0,53,0.00,,CLR,0.00,891.00,VWS V15.00,2013-04-29 21:00:00,
2013-04-29 16:01:00,82.0,63.7,29.79,SSW,194,6.0,7.0,54,0.00,,SCT250,0.00,761.00,VWS V14.01,2013-04-29 21:01:00,
2013-04-29 16:06:00,82.0,63.7,29.79,SSW,210,7.0,14.0,54,0.00,,SCT250,0.00,745.00,VWS V14.01,2013-04-29 21:06:00,
2013-04-29 16:10:00,82.0,63.7,29.82,SSW,205,10.0,12.0,54,0.00,,CLR,0.00,870.00,VWS V15.00,2013-04-29 21:10:00,
2013-04-29 16:11:00,81.6,63.9,29.79,South,182,5.0,8.0,55,0.00,,SCT250,0.00,735.00,VWS V14.01,2013-04-29 21:11:00,
2013-04-29 16:16:00,81.6,63.9,29.79,South,169,7.0,12.0,55,0.00,,SCT250,0.00,722.00,VWS V14.01,2013-04-29 21:16:00,
2013-04-29 16:20:00,82.2,63.9,29.82,South,180,6.0,11.0,54,0.00,,CLR,0.00,849.00,VWS V15.00,2013-04-29 21:20:00,
2013-04-29 16:21:00,81.6,63.4,29.79,South,180,5.0,6.0,54,0.00,,SCT250,0.00,707.00,VWS V14.01,2013-04-29 21:21:00,
2013-04-29 16:26:00,81.8,64.1,29.79,SSE,161,5.0,11.0,55,0.00,,SCT250,0.00,693.00,VWS V14.01,2013-04-29 21:26:00,
2013-04-29 16:30:00,81.8,63.5,29.81,South,178,5.0,11.0,54,0.00,,CLR,0.00,830.00,VWS V15.00,2013-04-29 21:30:00,
2013-04-29 16:31:00,81.8,64.1,29.78,SSE,168,5.0,9.0,55,0.00,,SCT250,0.00,679.00,VWS V14.01,2013-04-29 21:31:00,
2013-04-29 16:36:00,81.4,63.7,29.78,South,183,9.0,13.0,55,0.00,,SCT250,0.00,666.00,VWS V14.01,2013-04-29 21:36:00,
2013-04-29 16:40:00,82.0,63.7,29.81,South,180,9.0,13.0,54,0.00,,CLR,0.00,814.00,VWS V15.00,2013-04-29 21:40:00,
2013-04-29 16:41:00,80.9,63.8,29.78,SSW,209,7.0,7.0,56,0.00,,SCT250,0.00,649.00,VWS V14.01,2013-04-29 21:41:00,
2013-04-29 16:48:00,81.1,63.4,29.78,SSW,195,7.0,11.0,55,0.00,,SCT250,0.00,633.00,VWS V14.01,2013-04-29 21:48:00,
2013-04-29 16:50:00,82.2,63.9,29.80,South,185,6.0,13.0,54,0.00,,CLR,0.00,786.00,VWS V15.00,2013-04-29 21:50:00,
2013-04-29 16:53:00,81.1,62.9,29.78,SSW,197,9.0,11.0,54,0.00,,SCT250,0.00,612.00,VWS V14.01,2013-04-29 21:53:00,
2013-04-29 16:58:00,81.1,62.4,29.78,South,186,10.0,12.0,53,0.00,,SCT250,0.00,601.00,VWS V14.01,2013-04-29 21:58:00,
2013-04-29 17:00:00,82.0,63.7,29.79,SSW,195,6.0,13.0,54,0.00,,CLR,0.00,761.00,VWS V15.00,2013-04-29 22:00:00,
2013-04-29 17:03:00,80.9,62.2,29.77,South,184,9.0,13.0,53,0.00,,SCT250,0.00,577.00,VWS V14.01,2013-04-29 22:03:00,
2013-04-29 17:08:00,80.7,62.0,29.77,South,173,12.0,13.0,53,0.00,,SCT250,0.00,563.00,VWS V14.01,2013-04-29 22:08:00,
2013-04-29 17:10:00,81.6,63.9,29.79,South,189,7.0,14.0,55,0.00,,CLR,0.00,735.00,VWS V15.00,2013-04-29 22:10:00,
2013-04-29 17:13:00,80.5,61.8,29.77,SSW,192,8.0,16.0,53,0.00,,SCT250,0.00,545.00,VWS V14.01,2013-04-29 22:13:00,
2013-04-29 17:18:00,80.5,61.8,29.77,South,176,10.0,16.0,53,0.00,,SCT250,0.00,534.00,VWS V14.01,2013-04-29 22:18:00,
2013-04-29 17:20:00,81.6,63.4,29.79,South,186,6.0,12.0,54,0.00,,CLR,0.00,707.00,VWS V15.00,2013-04-29 22:20:00,
2013-04-29 17:23:00,80.3,61.6,29.77,South,169,5.0,13.0,53,0.00,,SCT250,0.00,513.00,VWS V14.01,2013-04-29 22:23:00,
2013-04-29 17:28:00,79.8,62.7,29.77,SSW,203,12.0,16.0,56,0.00,,SCT250,0.00,494.00,VWS V14.01,2013-04-29 22:28:00,
2013-04-29 17:30:00,81.8,64.1,29.78,South,186,9.0,12.0,55,0.00,,CLR,0.00,679.00,VWS V15.00,2013-04-29 22:30:00,
2013-04-29 17:33:00,79.8,61.7,29.77,SSW,208,9.0,12.0,54,0.00,,SCT250,0.00,476.00,VWS V14.01,2013-04-29 22:33:00,
2013-04-29 17:38:00,79.9,61.8,29.77,South,175,13.0,15.0,54,0.00,,SCT250,0.00,459.00,VWS V14.01,2013-04-29 22:38:00,
2013-04-29 17:40:00,80.9,63.8,29.78,SSE,168,7.0,13.0,56,0.00,,CLR,0.00,652.00,VWS V15.00,2013-04-29 22:40:00,
2013-04-29 17:43:00,79.8,61.7,29.77,SSW,211,13.0,13.0,54,0.00,,SCT250,0.00,441.00,VWS V14.01,2013-04-29 22:43:00,
2013-04-29 17:48:00,79.8,61.2,29.76,SSE,157,11.0,16.0,53,0.00,,SCT250,0.00,425.00,VWS V14.01,2013-04-29 22:48:00,
2013-04-29 17:50:00,80.9,62.7,29.78,South,190,8.0,12.0,54,0.00,,CLR,0.00,621.00,VWS V15.00,2013-04-29 22:50:00,
2013-04-29 17:53:00,79.9,61.3,29.76,South,185,7.0,14.0,53,0.00,,SCT250,0.00,413.00,VWS V14.01,2013-04-29 22:53:00,
2013-04-29 17:58:00,79.4,60.8,29.76,South,183,12.0,14.0,53,0.00,,SCT250,0.00,392.00,VWS V14.01,2013-04-29 22:58:00,
2013-04-29 18:00:00,80.7,62.5,29.77,SSE,167,4.0,12.0,54,0.00,,CLR,0.00,587.00,VWS V15.00,2013-04-29 23:00:00,
2013-04-29 18:03:00,79.4,61.3,29.76,South,177,7.0,11.0,54,0.00,,SCT250,0.00,376.00,VWS V14.01,2013-04-29 23:03:00,
2013-04-29 18:08:00,79.4,61.3,29.76,South,182,11.0,12.0,54,0.00,,SCT250,0.00,355.00,VWS V14.01,2013-04-29 23:08:00,
2013-04-29 18:10:00,80.7,61.5,29.77,SSW,207,10.0,13.0,52,0.00,,CLR,0.00,555.00,VWS V15.00,2013-04-29 23:10:00,
2013-04-29 18:13:00,79.4,61.3,29.76,South,186,10.0,11.0,54,0.00,,SCT250,0.00,336.00,VWS V14.01,2013-04-29 23:13:00,
2013-04-29 18:18:00,79.4,61.8,29.76,SSW,193,6.0,12.0,55,0.00,,SCT250,0.00,315.00,VWS V14.01,2013-04-29 23:18:00,
2013-04-29 18:20:00,80.3,61.6,29.77,South,175,8.0,16.0,53,0.00,,CLR,0.00,526.00,VWS V15.00,2013-04-29 23:20:00,
2013-04-29 18:23:00,79.2,61.1,29.76,South,188,7.0,11.0,54,0.00,,SCT250,0.00,301.00,VWS V14.01,2013-04-29 23:23:00,
2013-04-29 18:28:00,79.0,62.0,29.76,South,181,5.0,11.0,56,0.00,,SCT250,0.00,281.00,VWS V14.01,2013-04-29 23:28:00,
2013-04-29 18:30:00,79.8,62.2,29.77,SSE,164,12.0,16.0,55,0.00,,CLR,0.00,485.00,VWS V15.00,2013-04-29 23:30:00,
2013-04-29 18:33:00,79.0,62.5,29.76,South,190,6.0,9.0,57,0.00,,SCT250,0.00,264.00,VWS V14.01,2013-04-29 23:33:00,
2013-04-29 18:38:00,78.8,61.8,29.76,South,177,6.0,11.0,56,0.00,,SCT250,0.00,244.00,VWS V14.01,2013-04-29 23:38:00,
2013-04-29 18:40:00,79.8,61.2,29.77,South,178,8.0,15.0,53,0.00,,CLR,0.00,450.00,VWS V15.00,2013-04-29 23:40:00,
2013-04-29 18:43:00,78.6,61.6,29.76,South,186,10.0,11.0,56,0.00,,SCT250,0.00,225.00,VWS V14.01,2013-04-29 23:43:00,
2013-04-29 18:49:00,78.8,61.8,29.76,South,177,5.0,11.0,56,0.00,,SCT250,0.00,213.00,VWS V14.01,2013-04-29 23:49:00,
2013-04-29 18:50:00,79.8,60.6,29.76,South,173,11.0,16.0,52,0.00,,CLR,0.00,422.00,VWS V15.00,2013-04-29 23:50:00,
2013-04-29 18:54:00,78.5,62.5,29.76,SSE,165,5.0,11.0,58,0.00,,SCT250,0.00,185.00,VWS V14.01,2013-04-29 23:54:00,
2013-04-29 18:59:00,78.1,62.1,29.76,South,188,9.0,11.0,58,0.00,,SCT250,0.00,169.00,VWS V14.01,2013-04-29 23:59:00,
2013-04-29 19:00:00,79.4,60.8,29.76,South,189,10.0,14.0,53,0.00,,CLR,0.00,387.00,VWS V15.00,2013-04-30 00:00:00,
2013-04-29 19:04:00,77.9,62.0,29.76,South,186,4.0,10.0,58,0.00,,SCT250,0.00,151.00,VWS V14.01,2013-04-30 00:04:00,
2013-04-29 19:09:00,78.1,62.1,29.76,SSW,196,7.0,10.0,58,0.00,,SCT250,0.00,135.00,VWS V14.01,2013-04-30 00:09:00,
2013-04-29 19:10:00,79.4,61.3,29.76,South,188,5.0,12.0,54,0.00,,CLR,0.00,345.00,VWS V15.00,2013-04-30 00:10:00,
2013-04-29 19:14:00,78.1,62.1,29.76,South,188,10.0,10.0,58,0.00,,SCT250,0.00,123.00,VWS V14.01,2013-04-30 00:14:00,
2013-04-29 19:19:00,77.9,62.0,29.76,South,180,6.0,12.0,58,0.00,,SCT250,0.00,107.00,VWS V14.01,2013-04-30 00:19:00,
2013-04-29 19:20:00,79.4,61.8,29.76,SSE,162,10.0,12.0,55,0.00,,CLR,0.00,308.00,VWS V15.00,2013-04-30 00:20:00,
2013-04-29 19:24:00,77.7,62.7,29.76,South,176,6.0,8.0,60,0.00,,SCT250,0.00,97.00,VWS V14.01,2013-04-30 00:24:00,
2013-04-29 19:29:00,77.2,63.2,29.76,South,188,3.0,8.0,62,0.00,,SCT250,0.00,74.00,VWS V14.01,2013-04-30 00:29:00,
2013-04-29 19:30:00,79.0,62.0,29.76,South,173,7.0,11.0,56,0.00,,CLR,0.00,274.00,VWS V15.00,2013-04-30 00:30:00,
2013-04-29 19:34:00,76.8,63.3,29.76,South,186,4.0,6.0,63,0.00,,SCT250,0.00,58.00,VWS V14.01,2013-04-30 00:34:00,
2013-04-29 19:39:00,76.8,62.8,29.76,South,184,5.0,9.0,62,0.00,,SCT250,0.00,44.00,VWS V14.01,2013-04-30 00:39:00,
2013-04-29 19:40:00,78.6,61.6,29.76,SSW,192,9.0,11.0,56,0.00,,CLR,0.00,237.00,VWS V15.00,2013-04-30 00:40:00,
2013-04-29 19:45:00,76.8,62.3,29.76,South,178,3.0,10.0,61,0.00,,SCT250,0.00,33.00,VWS V14.01,2013-04-30 00:45:00,
2013-04-29 19:50:00,76.8,61.4,29.76,South,171,3.0,10.0,59,0.00,,SCT250,0.00,23.00,VWS V14.01,2013-04-30 00:50:00,
2013-04-29 19:55:00,77.0,61.6,29.76,South,178,6.0,9.0,59,0.00,,SCT250,0.00,16.00,VWS V14.01,2013-04-30 00:55:00,
2013-04-29 20:00:00,77.0,61.6,29.76,SW,216,4.0,11.0,59,0.00,,SCT250,0.00,11.00,VWS V14.01,2013-04-30 01:00:00,
2013-04-29 20:05:00,76.8,61.4,29.76,SSE,161,6.0,8.0,59,0.00,,SCT250,0.00,7.00,VWS V14.01,2013-04-30 01:05:00,
2013-04-29 20:10:00,76.7,61.3,29.76,South,169,4.0,9.0,59,0.00,,SCT250,0.00,0.00,VWS V14.01,2013-04-30 01:10:00,
2013-04-29 20:15:00,76.5,61.1,29.77,South,179,5.0,9.0,59,0.00,,SCT250,0.00,0.00,VWS V14.01,2013-04-30 01:15:00,
2013-04-29 20:20:00,76.3,60.9,29.77,SSW,196,3.0,9.0,59,0.00,,SCT250,0.00,0.00,VWS V14.01,2013-04-30 01:20:00,
2013-04-29 20:25:00,76.0,61.1,29.77,South,186,6.0,6.0,60,0.00,,SCT250,0.00,0.00,VWS V14.01,2013-04-30 01:25:00,
2013-04-29 20:30:00,75.6,62.6,29.77,South,190,5.0,6.0,64,0.00,,SCT250,0.00,0.00,VWS V14.01,2013-04-30 01:30:00,
2013-04-29 20:35:00,75.1,63.0,29.77,South,189,3.0,5.0,66,0.00,,SCT250,0.00,0.00,VWS V14.01,2013-04-30 01:35:00,
2013-04-29 20:40:00,74.4,63.2,29.77,South,188,3.0,5.0,68,0.00,,FEW250,0.00,0.00,VWS V14.01,2013-04-30 01:40:00,
2013-04-29 20:45:00,74.0,62.8,29.78,South,182,3.0,6.0,68,0.00,,FEW250,0.00,0.00,VWS V14.01,2013-04-30 01:45:00,
2013-04-29 20:50:00,73.7,62.5,29.78,South,178,5.0,6.0,68,0.00,,FEW250,0.00,0.00,VWS V14.01,2013-04-30 01:50:00,
2013-04-29 20:55:00,73.3,62.5,29.78,South,180,4.0,7.0,69,0.00,,FEW250,0.00,0.00,VWS V14.01,2013-04-30 01:55:00,
2013-04-29 21:00:00,73.0,62.2,29.78,South,179,3.0,7.0,69,0.00,,FEW250,0.00,0.00,VWS V14.01,2013-04-30 02:00:00,
2013-04-29 21:05:00,72.8,62.5,29.78,South,179,4.0,5.0,70,0.00,,FEW250,0.00,0.00,VWS V14.01,2013-04-30 02:05:00,
2013-04-29 21:10:00,72.7,62.4,29.78,South,179,4.0,5.0,70,0.00,,FEW250,0.00,0.00,VWS V14.01,2013-04-30 02:10:00,
2013-04-29 21:15:00,72.5,62.6,29.78,South,179,3.0,5.0,71,0.00,,FEW250,0.00,0.00,VWS V14.01,2013-04-30 02:15:00,
2013-04-29 21:20:00,72.3,62.4,29.78,South,178,2.0,6.0,71,0.00,,FEW250,0.00,0.00,VWS V14.01,2013-04-30 02:20:00,
2013-04-29 21:25:00,72.3,62.8,29.78,South,178,3.0,4.0,72,0.00,,FEW250,0.00,0.00,VWS V14.01,2013-04-30 02:25:00,
2013-04-29 21:30:00,72.3,62.8,29.79,South,178,2.0,4.0,72,0.00,,FEW250,0.00,0.00,VWS V14.01,2013-04-30 02:30:00,
2013-04-29 21:35:00,72.1,62.6,29.79,South,178,2.0,4.0,72,0.00,,FEW250,0.00,0.00,VWS V14.01,2013-04-30 02:35:00,
2013-04-29 21:40:00,72.1,63.0,29.79,South,178,1.0,4.0,73,0.00,,FEW250,0.00,0.00,VWS V14.01,2013-04-30 02:40:00,
2013-04-29 21:45:00,72.0,62.9,29.79,South,178,3.0,3.0,73,0.00,,FEW250,0.00,0.00,VWS V14.01,2013-04-30 02:45:00,
2013-04-29 21:50:00,72.0,62.9,29.79,South,178,3.0,4.0,73,0.00,,FEW250,0.00,0.00,VWS V14.01,2013-04-30 02:50:00,
2013-04-29 21:55:00,72.0,62.9,29.79,South,178,3.0,4.0,73,0.00,,FEW250,0.00,0.00,VWS V14.01,2013-04-30 02:55:00,
2013-04-29 22:00:00,72.0,62.9,29.79,South,178,4.0,4.0,73,0.00,,FEW250,0.00,0.00,VWS V14.01,2013-04-30 03:00:00,
2013-04-29 22:05:00,72.0,62.5,29.79,South,178,3.0,4.0,72,0.00,,FEW250,0.00,0.00,VWS V14.01,2013-04-30 03:05:00,
2013-04-29 22:10:00,71.8,62.7,29.79,South,178,2.0,4.0,73,0.00,,FEW250,0.00,0.00,VWS V14.01,2013-04-30 03:10:00,
2013-04-29 22:15:00,71.8,62.7,29.79,South,179,1.0,4.0,73,0.00,,FEW250,0.00,0.00,VWS V14.01,2013-04-30 03:15:00,
2013-04-29 22:20:00,71.5,62.4,29.79,South,179,4.0,5.0,73,0.00,,FEW250,0.00,0.00,VWS V14.01,2013-04-30 03:20:00,
2013-04-29 22:25:00,71.3,62.6,29.79,South,179,2.0,5.0,74,0.00,,FEW250,0.00,0.00,VWS V14.01,2013-04-30 03:25:00,
2013-04-29 22:30:00,71.1,62.8,29.79,South,174,5.0,5.0,75,0.00,,FEW250,0.00,0.00,VWS V14.01,2013-04-30 03:30:00,
2013-04-29 22:35:00,70.9,62.2,29.79,South,181,5.0,6.0,74,0.00,,FEW250,0.00,0.00,VWS V14.01,2013-04-30 03:35:00,
2013-04-29 22:40:00,70.9,61.8,29.79,South,190,5.0,8.0,73,0.00,,FEW250,0.00,0.00,VWS V14.01,2013-04-30 03:40:00,
2013-04-29 22:45:00,70.9,61.4,29.80,South,184,8.0,10.0,72,0.00,,FEW250,0.00,0.00,VWS V14.01,2013-04-30 03:45:00,
2013-04-29 22:50:00,71.1,61.6,29.80,South,185,5.0,10.0,72,0.00,,FEW250,0.00,0.00,VWS V14.01,2013-04-30 03:50:00,
2013-04-29 22:55:00,70.9,61.8,29.80,South,184,4.0,9.0,73,0.00,,FEW250,0.00,0.00,VWS V14.01,2013-04-30 03:55:00,
2013-04-29 23:00:00,70.4,61.3,29.80,South,182,7.0,9.0,73,0.00,,FEW250,0.00,0.00,VWS V14.01,2013-04-30 04:00:00,
2013-04-29 23:01:00,70.4,61.3,29.80,South,179,7.0,9.0,73,0.00,,FEW250,0.00,0.00,VWS V14.01,2013-04-30 04:01:00,
2013-04-29 23:06:00,70.1,60.7,29.80,South,185,5.0,10.0,72,0.00,,FEW250,0.00,0.00,VWS V14.01,2013-04-30 04:06:00,
2013-04-29 23:10:00,71.8,62.7,29.79,South,179,3.0,5.0,73,0.00,,CLR,0.00,0.00,VWS V15.00,2013-04-30 04:10:00,
2013-04-29 23:11:00,69.9,60.1,29.80,South,179,9.0,10.0,71,0.00,,FEW250,0.00,0.00,VWS V14.01,2013-04-30 04:11:00,
2013-04-29 23:16:00,69.9,59.7,29.79,South,187,5.0,11.0,70,0.00,,FEW250,0.00,0.00,VWS V14.01,2013-04-30 04:16:00,
2013-04-29 23:20:00,71.5,62.8,29.79,South,179,3.0,5.0,74,0.00,,CLR,0.00,0.00,VWS V15.00,2013-04-30 04:20:00,
2013-04-29 23:21:00,70.1,59.9,29.79,South,175,10.0,10.0,70,0.00,,FEW250,0.00,0.00,VWS V14.01,2013-04-30 04:21:00,
2013-04-29 23:26:00,70.1,59.5,29.79,SSW,192,5.0,10.0,69,0.00,,FEW250,0.00,0.00,VWS V14.01,2013-04-30 04:26:00,
2013-04-29 23:30:00,70.9,62.6,29.79,South,173,2.0,6.0,75,0.00,,CLR,0.00,0.00,VWS V15.00,2013-04-30 04:30:00,
2013-04-29 23:31:00,70.4,58.5,29.79,South,181,10.0,10.0,66,0.00,,FEW250,0.00,0.00,VWS V14.01,2013-04-30 04:31:00,
2013-04-29 23:36:00,70.6,58.3,29.79,South,190,7.0,12.0,65,0.00,,FEW250,0.00,0.00,VWS V14.01,2013-04-30 04:36:00,
2013-04-29 23:40:00,70.9,61.8,29.79,South,188,9.0,9.0,73,0.00,,CLR,0.00,0.00,VWS V15.00,2013-04-30 04:40:00,
2013-04-29 23:41:00,70.8,58.0,29.79,South,174,9.0,14.0,64,0.00,,FEW250,0.00,0.00,VWS V14.01,2013-04-30 04:41:00,
2013-04-29 23:46:00,70.9,58.1,29.79,SSW,196,5.0,14.0,64,0.00,,FEW250,0.00,0.00,VWS V14.01,2013-04-30 04:46:00,
2013-04-29 23:50:00,71.1,61.6,29.80,South,178,4.0,10.0,72,0.00,,CLR,0.00,0.00,VWS V15.00,2013-04-30 04:50:00,
2013-04-29 23:51:00,70.9,58.1,29.79,South,175,5.0,9.0,64,0.00,,FEW250,0.00,0.00,VWS V14.01,2013-04-30 04:51:00,
2013-04-29 23:56:00,70.9,58.1,29.79,South,189,6.0,10.0,64,0.00,,FEW250,0.00,0.00,VWS V14.01,2013-04-30 04:56:00,